Coral Electra — PCAG — position and weather

sailwx.info

Track history (hours):
 
Tides and Currents Weather Stations Pressure Air Temp Water Temp Dewpoint Dewpoint Depression Visibility Wind Speed Wind Dir Waves Ship Positions

Coral Electra

Last reported at 2015-May-27 15:33 UTC. Time now 2015-May-27 15:57 UTC.
Position N 53°27' E 006°50'.

Length 14 m; draft 2 m.

Type: Port tender. MMSI: 244690019.

Date/timePositionNaut miles runAvg speedWind from/ knotsBaromVisibWave heightAir tempDewpointWater temp
2015-May-27 15:33N 53°27' E 006°50'0 0.0
2015-May-27 14:32N 53°27' E 006°50'0 0.4
2015-May-27 13:33N 53°27' E 006°50'2 1.7
2015-May-27 12:34N 53°28' E 006°48'5 1.2
2015-May-27 08:07N 53°32' E 006°41'712.0
2015-May-27 07:32N 53°27' E 006°49'2 1.2
2015-May-27 05:27N 53°29' E 006°46'3 2.9
2015-May-27 04:33N 53°27' E 006°50'0 0.0
2015-May-27 03:25N 53°27' E 006°50'0 0.0
2015-May-27 02:25N 53°27' E 006°50'0 0.0
2015-May-27 01:31N 53°27' E 006°50'0 0.0
2015-May-27 00:17N 53°27' E 006°50'0 0.0
2015-May-26 22:26N 53°27' E 006°50'0 0.0
2015-May-26 21:26N 53°27' E 006°50'0 0.0
2015-May-26 20:23N 53°27' E 006°50'0 0.0
2015-May-26 19:23N 53°27' E 006°50'0 0.0
2015-May-26 18:23N 53°27' E 006°50'0 0.0
2015-May-26 17:27N 53°27' E 006°50'0 0.0
2015-May-26 16:25N 53°27' E 006°50'0 0.0
2015-May-26 15:10N 53°27' E 006°50'0 0.0
2015-May-26 13:26N 53°27' E 006°50'0 0.0
2015-May-26 12:32N 53°27' E 006°50'0 0.0
2015-May-26 11:29N 53°27' E 006°50'0 0.0
2015-May-26 10:14N 53°27' E 006°50'1 1.4
2015-May-26 09:32N 53°28' E 006°50'3 3.1
2015-May-26 08:32N 53°29' E 006°45'3 0.8
2015-May-26 04:33N 53°27' E 006°50'0 0.0
2015-May-26 03:29N 53°27' E 006°50'0 0.0
2015-May-26 02:15N 53°27' E 006°50'0 0.0
2015-May-26 01:23N 53°27' E 006°50'0 0.0
2015-May-26 00:18N 53°27' E 006°50'0 0.0
2015-May-25 23:31N 53°27' E 006°50'0 0.0
2015-May-25 22:31N 53°27' E 006°50'0 0.0
2015-May-25 21:19N 53°27' E 006°50'0 0.0
2015-May-25 20:30N 53°27' E 006°50'0 0.0
2015-May-25 19:30N 53°27' E 006°50'0 0.0
2015-May-25 18:33N 53°27' E 006°50'0 0.0
2015-May-25 17:21N 53°27' E 006°50'0 0.0
2015-May-25 16:33N 53°27' E 006°50'0 0.0
2015-May-25 15:24N 53°27' E 006°50'0 0.0
2015-May-25 14:25N 53°27' E 006°50'0 0.0
2015-May-25 13:33N 53°27' E 006°50'0 0.0
2015-May-25 12:32N 53°27' E 006°50'0 0.0
2015-May-25 11:24N 53°27' E 006°50'0 0.3
2015-May-25 10:30N 53°27' E 006°49'2 0.7
2015-May-25 07:31N 53°28' E 006°47'4 4.0
2015-May-25 06:28N 53°31' E 006°41'1 0.4
2015-May-25 04:15N 53°30' E 006°43'5 6.7
2015-May-25 03:26N 53°27' E 006°50'0 0.0
2015-May-25 02:30N 53°27' E 006°50'0 0.0
2015-May-25 01:33N 53°27' E 006°50'0 0.0
2015-May-25 00:33N 53°27' E 006°50'0 0.0
2015-May-24 23:22N 53°27' E 006°50'0 0.0
2015-May-24 21:25N 53°27' E 006°50'0 0.0
2015-May-24 20:32N 53°27' E 006°50'0 0.0
2015-May-24 19:23N 53°27' E 006°50'0 0.0
2015-May-24 18:31N 53°27' E 006°50'0 0.0
2015-May-24 17:25N 53°27' E 006°50'0 0.0
2015-May-24 16:33N 53°27' E 006°50'0 0.0
2015-May-24 15:33N 53°27' E 006°50'0 0.0
2015-May-24 14:30N 53°27' E 006°50'0 0.1
2015-May-24 13:30N 53°27' E 006°49'0 0.0
2015-May-24 12:33N 53°27' E 006°49'0 0.0
2015-May-24 11:32N 53°27' E 006°49'0 0.2
2015-May-24 10:33N 53°27' E 006°49'5 2.6
2015-May-24 08:26N 53°30' E 006°42'6 4.7
2015-May-24 07:14N 53°27' E 006°50'0 0.0
2015-May-24 06:27N 53°27' E 006°50'0 0.0
2015-May-24 05:22N 53°27' E 006°50'0 0.0
2015-May-24 04:27N 53°27' E 006°50'0 0.0
2015-May-24 03:33N 53°27' E 006°50'0 0.0
2015-May-24 02:30N 53°27' E 006°50'0 0.0
2015-May-24 01:33N 53°27' E 006°50'0 0.0
2015-May-24 00:33N 53°27' E 006°50'0 0.0
2015-May-23 23:32N 53°27' E 006°50'0 0.0
2015-May-23 22:33N 53°27' E 006°50'0 0.0
2015-May-23 21:33N 53°27' E 006°50'0 0.0
2015-May-23 20:32N 53°27' E 006°50'0 0.0
2015-May-23 19:33N 53°27' E 006°50'0 0.0
2015-May-23 18:17N 53°27' E 006°50'0 0.0
2015-May-23 17:32N 53°27' E 006°50'0 0.0
2015-May-23 16:32N 53°27' E 006°50'0 0.0
2015-May-23 15:20N 53°27' E 006°50'0 0.0
2015-May-23 14:30N 53°27' E 006°50'0 0.0
2015-May-23 13:32N 53°27' E 006°50'0 0.0
2015-May-23 12:32N 53°27' E 006°50'0 0.0
2015-May-23 11:22N 53°27' E 006°50'0 0.0
2015-May-23 10:27N 53°27' E 006°50'4 1.2
2015-May-23 07:33N 53°29' E 006°45'4 3.5
2015-May-23 06:33N 53°27' E 006°50'1 0.7
2015-May-23 04:33N 53°28' E 006°49'2 1.5
2015-May-23 03:32N 53°27' E 006°50'0 0.0
2015-May-23 02:29N 53°27' E 006°50'0 0.0
2015-May-23 01:24N 53°27' E 006°50'0 0.0
2015-May-23 00:25N 53°27' E 006°50'0 0.0
2015-May-22 23:32N 53°27' E 006°50'0 0.0
2015-May-22 22:21N 53°27' E 006°50'0 0.0
2015-May-22 21:27N 53°27' E 006°50'0 0.0
2015-May-22 20:25N 53°27' E 006°50'0 0.0
2015-May-22 19:33N 53°27' E 006°50'0 0.0
2015-May-22 18:33N 53°27' E 006°50'0 0.0
2015-May-22 17:33N 53°27' E 006°50'0 0.0
2015-May-22 16:28N 53°27' E 006°50'0 0.0
2015-May-22 15:32N 53°27' E 006°50'0 0.0
2015-May-22 14:33N 53°27' E 006°50'0 0.0
2015-May-22 13:33N 53°27' E 006°50'0 0.0
2015-May-22 12:27N 53°27' E 006°50'0 0.3
2015-May-22 11:14N 53°27' E 006°50'0 0.4
2015-May-22 10:31N 53°27' E 006°49'0 0.2
2015-May-22 08:33N 53°27' E 006°50'4 0.9
2015-May-22 04:17N 53°29' E 006°45'4 5.0
2015-May-22 03:30N 53°27' E 006°50'0 0.0
2015-May-22 02:29N 53°27' E 006°50'0 0.0
2015-May-22 01:32N 53°27' E 006°50'0 0.0
2015-May-22 00:33N 53°27' E 006°50'0 0.0
2015-May-21 23:22N 53°27' E 006°50'0 0.0
2015-May-21 22:32N 53°27' E 006°50'0 0.0
2015-May-21 21:28N 53°27' E 006°50'0 0.0
2015-May-21 20:24N 53°27' E 006°50'0 0.0
2015-May-21 19:33N 53°27' E 006°50'0 0.0
2015-May-21 18:32N 53°27' E 006°50'0 0.0
2015-May-21 17:33N 53°27' E 006°50'0 0.0
2015-May-21 16:32N 53°27' E 006°50'0 0.0
2015-May-21 15:33N 53°27' E 006°50'0 0.0
2015-May-21 14:32N 53°27' E 006°50'1 0.6
2015-May-21 13:33N 53°27' E 006°49'7 3.4
2015-May-21 11:32N 53°32' E 006°41'7 7.1
2015-May-21 10:30N 53°27' E 006°50'0 0.0
2015-May-21 09:27N 53°27' E 006°50'1 0.6
2015-May-21 08:32N 53°27' E 006°49'0 0.0
2015-May-21 07:32N 53°27' E 006°49'1 0.1
2015-May-21 03:33N 53°27' E 006°50'0 0.0
2015-May-21 02:21N 53°27' E 006°50'0 0.0
2015-May-21 01:33N 53°27' E 006°50'0 0.0
2015-May-21 00:19N 53°27' E 006°50'0 0.0
2015-May-20 23:23N 53°27' E 006°50'0 0.0
2015-May-20 21:30N 53°27' E 006°50'0 0.0
2015-May-20 20:33N 53°27' E 006°50'0 0.0
2015-May-20 19:25N 53°27' E 006°50'0 0.0
2015-May-20 18:18N 53°27' E 006°50'0 0.0
2015-May-20 16:32N 53°27' E 006°50'0 0.0
2015-May-20 15:32N 53°27' E 006°50'0 0.0
2015-May-20 14:30N 53°27' E 006°50'0 0.5
2015-May-20 13:33N 53°27' E 006°50'0 0.4
2015-May-20 12:33N 53°27' E 006°50'0 0.0
2015-May-20 09:33N 53°27' E 006°50'4 3.4
2015-May-20 08:26N 53°29' E 006°45'3 3.3
2015-May-20 07:25N 53°27' E 006°50'0 0.3
2015-May-20 06:33N 53°27' E 006°50'1 0.2
2015-May-20 03:34N 53°27' E 006°50'0 0.0
2015-May-20 02:32N 53°27' E 006°50'0 0.0
2015-May-20 01:31N 53°27' E 006°50'0 0.0
2015-May-20 00:33N 53°27' E 006°50'0 0.0
2015-May-19 23:32N 53°27' E 006°50'0 0.0
2015-May-19 22:32N 53°27' E 006°50'0 0.0
2015-May-19 21:21N 53°27' E 006°50'0 0.0
2015-May-19 20:18N 53°27' E 006°50'0 0.0
2015-May-19 19:18N 53°27' E 006°50'0 0.0
2015-May-19 18:18N 53°27' E 006°50'0 0.0
2015-May-19 17:25N 53°27' E 006°50'0 0.0
2015-May-19 16:26N 53°27' E 006°50'0 0.0
2015-May-19 15:33N 53°27' E 006°50'0 0.0
2015-May-19 14:33N 53°27' E 006°50'0 0.2
2015-May-19 13:32N 53°27' E 006°49'4 3.3
2015-May-19 12:26N 53°29' E 006°44'4 3.9
2015-May-19 11:32N 53°27' E 006°49'0 0.3
2015-May-19 10:28N 53°27' E 006°50'0 0.0
2015-May-19 09:33N 53°27' E 006°50'6 4.0
2015-May-19 08:04N 53°31' E 006°42'5 9.9
2015-May-19 07:31N 53°27' E 006°49'0 0.3
2015-May-19 06:33N 53°27' E 006°49'0 0.0
2015-May-18 23:27N 53°27' E 006°50'0 0.0
2015-May-18 21:27N 53°27' E 006°50'0 0.0
2015-May-18 20:27N 53°27' E 006°50'0 0.0
2015-May-18 19:33N 53°27' E 006°50'0 0.0
2015-May-18 18:20N 53°27' E 006°50'0 0.3
2015-May-18 17:33N 53°27' E 006°49'8 1.9
2015-May-18 13:27N 53°32' E 006°40'8 8.6
2015-May-18 12:32N 53°27' E 006°50'1 1.2
2015-May-18 11:32N 53°28' E 006°50'6 3.8
2015-May-18 10:04N 53°31' E 006°42'611.5
2015-May-18 09:33N 53°27' E 006°49'0 0.2
2015-May-18 08:22N 53°27' E 006°50'0 0.0
2015-May-18 07:13N 53°27' E 006°50'0 0.0
2015-May-18 06:08N 53°27' E 006°50'0 0.0
2015-May-18 03:18N 53°27' E 006°50'0 0.0
2015-May-18 02:06N 53°27' E 006°50'0 0.0
2015-May-18 01:30N 53°27' E 006°50'0 0.0
2015-May-18 00:18N 53°27' E 006°50'0 0.0
2015-May-17 23:33N 53°27' E 006°50'0 0.0
2015-May-17 22:33N 53°27' E 006°50'0 0.0
2015-May-17 21:33N 53°27' E 006°50'0 0.0
2015-May-17 20:32N 53°27' E 006°50'0 0.0
2015-May-17 19:26N 53°27' E 006°50'0 0.0
2015-May-17 18:33N 53°27' E 006°50'0 0.0
2015-May-17 17:33N 53°27' E 006°50'0 0.0
2015-May-17 16:32N 53°27' E 006°50'  
Track history (hours):
 
Tides and Currents Weather Stations Pressure Air Temp Water Temp Dewpoint Dewpoint Depression Visibility Wind Speed Wind Dir Waves Ship Positions

Coral Electra

Last reported at 2015-May-27 15:33 UTC. Time now 2015-May-27 15:57 UTC.
Position N 53°27' E 006°50'.

Length 14 m; draft 2 m.

Type: Port tender. MMSI: 244690019.

Date/timePositionNaut miles runAvg speedWind from/ knotsBaromVisibWave heightAir tempDewpointWater temp
2015-May-27 15:33N 53°27' E 006°50'0 0.0
2015-May-27 14:32N 53°27' E 006°50'0 0.4
2015-May-27 13:33N 53°27' E 006°50'2 1.7
2015-May-27 12:34N 53°28' E 006°48'5 1.2
2015-May-27 08:07N 53°32' E 006°41'712.0
2015-May-27 07:32N 53°27' E 006°49'2 1.2
2015-May-27 05:27N 53°29' E 006°46'3 2.9
2015-May-27 04:33N 53°27' E 006°50'0 0.0
2015-May-27 03:25N 53°27' E 006°50'0 0.0
2015-May-27 02:25N 53°27' E 006°50'0 0.0
2015-May-27 01:31N 53°27' E 006°50'0 0.0
2015-May-27 00:17N 53°27' E 006°50'0 0.0
2015-May-26 22:26N 53°27' E 006°50'0 0.0
2015-May-26 21:26N 53°27' E 006°50'0 0.0
2015-May-26 20:23N 53°27' E 006°50'0 0.0
2015-May-26 19:23N 53°27' E 006°50'0 0.0
2015-May-26 18:23N 53°27' E 006°50'0 0.0
2015-May-26 17:27N 53°27' E 006°50'0 0.0
2015-May-26 16:25N 53°27' E 006°50'0 0.0
2015-May-26 15:10N 53°27' E 006°50'0 0.0
2015-May-26 13:26N 53°27' E 006°50'0 0.0
2015-May-26 12:32N 53°27' E 006°50'0 0.0
2015-May-26 11:29N 53°27' E 006°50'0 0.0
2015-May-26 10:14N 53°27' E 006°50'1 1.4
2015-May-26 09:32N 53°28' E 006°50'3 3.1
2015-May-26 08:32N 53°29' E 006°45'3 0.8
2015-May-26 04:33N 53°27' E 006°50'0 0.0
2015-May-26 03:29N 53°27' E 006°50'0 0.0
2015-May-26 02:15N 53°27' E 006°50'0 0.0
2015-May-26 01:23N 53°27' E 006°50'0 0.0
2015-May-26 00:18N 53°27' E 006°50'0 0.0
2015-May-25 23:31N 53°27' E 006°50'0 0.0
2015-May-25 22:31N 53°27' E 006°50'0 0.0
2015-May-25 21:19N 53°27' E 006°50'0 0.0
2015-May-25 20:30N 53°27' E 006°50'0 0.0
2015-May-25 19:30N 53°27' E 006°50'0 0.0
2015-May-25 18:33N 53°27' E 006°50'0 0.0
2015-May-25 17:21N 53°27' E 006°50'0 0.0
2015-May-25 16:33N 53°27' E 006°50'0 0.0
2015-May-25 15:24N 53°27' E 006°50'0 0.0
2015-May-25 14:25N 53°27' E 006°50'0 0.0
2015-May-25 13:33N 53°27' E 006°50'0 0.0
2015-May-25 12:32N 53°27' E 006°50'0 0.0
2015-May-25 11:24N 53°27' E 006°50'0 0.3
2015-May-25 10:30N 53°27' E 006°49'2 0.7
2015-May-25 07:31N 53°28' E 006°47'4 4.0
2015-May-25 06:28N 53°31' E 006°41'1 0.4
2015-May-25 04:15N 53°30' E 006°43'5 6.7
2015-May-25 03:26N 53°27' E 006°50'0 0.0
2015-May-25 02:30N 53°27' E 006°50'0 0.0
2015-May-25 01:33N 53°27' E 006°50'0 0.0
2015-May-25 00:33N 53°27' E 006°50'0 0.0
2015-May-24 23:22N 53°27' E 006°50'0 0.0
2015-May-24 21:25N 53°27' E 006°50'0 0.0
2015-May-24 20:32N 53°27' E 006°50'0 0.0
2015-May-24 19:23N 53°27' E 006°50'0 0.0
2015-May-24 18:31N 53°27' E 006°50'0 0.0
2015-May-24 17:25N 53°27' E 006°50'0 0.0
2015-May-24 16:33N 53°27' E 006°50'0 0.0
2015-May-24 15:33N 53°27' E 006°50'0 0.0
2015-May-24 14:30N 53°27' E 006°50'0 0.1
2015-May-24 13:30N 53°27' E 006°49'0 0.0
2015-May-24 12:33N 53°27' E 006°49'0 0.0
2015-May-24 11:32N 53°27' E 006°49'0 0.2
2015-May-24 10:33N 53°27' E 006°49'5 2.6
2015-May-24 08:26N 53°30' E 006°42'6 4.7
2015-May-24 07:14N 53°27' E 006°50'0 0.0
2015-May-24 06:27N 53°27' E 006°50'0 0.0
2015-May-24 05:22N 53°27' E 006°50'0 0.0
2015-May-24 04:27N 53°27' E 006°50'0 0.0
2015-May-24 03:33N 53°27' E 006°50'0 0.0
2015-May-24 02:30N 53°27' E 006°50'0 0.0
2015-May-24 01:33N 53°27' E 006°50'0 0.0
2015-May-24 00:33N 53°27' E 006°50'0 0.0
2015-May-23 23:32N 53°27' E 006°50'0 0.0
2015-May-23 22:33N 53°27' E 006°50'0 0.0
2015-May-23 21:33N 53°27' E 006°50'0 0.0
2015-May-23 20:32N 53°27' E 006°50'0 0.0
2015-May-23 19:33N 53°27' E 006°50'0 0.0
2015-May-23 18:17N 53°27' E 006°50'0 0.0
2015-May-23 17:32N 53°27' E 006°50'0 0.0
2015-May-23 16:32N 53°27' E 006°50'0 0.0
2015-May-23 15:20N 53°27' E 006°50'0 0.0
2015-May-23 14:30N 53°27' E 006°50'0 0.0
2015-May-23 13:32N 53°27' E 006°50'0 0.0
2015-May-23 12:32N 53°27' E 006°50'0 0.0
2015-May-23 11:22N 53°27' E 006°50'0 0.0
2015-May-23 10:27N 53°27' E 006°50'4 1.2
2015-May-23 07:33N 53°29' E 006°45'4 3.5
2015-May-23 06:33N 53°27' E 006°50'1 0.7
2015-May-23 04:33N 53°28' E 006°49'2 1.5
2015-May-23 03:32N 53°27' E 006°50'0 0.0
2015-May-23 02:29N 53°27' E 006°50'0 0.0
2015-May-23 01:24N 53°27' E 006°50'0 0.0
2015-May-23 00:25N 53°27' E 006°50'0 0.0
2015-May-22 23:32N 53°27' E 006°50'0 0.0
2015-May-22 22:21N 53°27' E 006°50'0 0.0
2015-May-22 21:27N 53°27' E 006°50'0 0.0
2015-May-22 20:25N 53°27' E 006°50'0 0.0
2015-May-22 19:33N 53°27' E 006°50'0 0.0
2015-May-22 18:33N 53°27' E 006°50'0 0.0
2015-May-22 17:33N 53°27' E 006°50'0 0.0
2015-May-22 16:28N 53°27' E 006°50'0 0.0
2015-May-22 15:32N 53°27' E 006°50'0 0.0
2015-May-22 14:33N 53°27' E 006°50'0 0.0
2015-May-22 13:33N 53°27' E 006°50'0 0.0
2015-May-22 12:27N 53°27' E 006°50'0 0.3
2015-May-22 11:14N 53°27' E 006°50'0 0.4
2015-May-22 10:31N 53°27' E 006°49'0 0.2
2015-May-22 08:33N 53°27' E 006°50'4 0.9
2015-May-22 04:17N 53°29' E 006°45'4 5.0
2015-May-22 03:30N 53°27' E 006°50'0 0.0
2015-May-22 02:29N 53°27' E 006°50'0 0.0
2015-May-22 01:32N 53°27' E 006°50'0 0.0
2015-May-22 00:33N 53°27' E 006°50'0 0.0
2015-May-21 23:22N 53°27' E 006°50'0 0.0
2015-May-21 22:32N 53°27' E 006°50'0 0.0
2015-May-21 21:28N 53°27' E 006°50'0 0.0
2015-May-21 20:24N 53°27' E 006°50'0 0.0
2015-May-21 19:33N 53°27' E 006°50'0 0.0
2015-May-21 18:32N 53°27' E 006°50'0 0.0
2015-May-21 17:33N 53°27' E 006°50'0 0.0
2015-May-21 16:32N 53°27' E 006°50'0 0.0
2015-May-21 15:33N 53°27' E 006°50'0 0.0
2015-May-21 14:32N 53°27' E 006°50'1 0.6
2015-May-21 13:33N 53°27' E 006°49'7 3.4
2015-May-21 11:32N 53°32' E 006°41'7 7.1
2015-May-21 10:30N 53°27' E 006°50'0 0.0
2015-May-21 09:27N 53°27' E 006°50'1 0.6
2015-May-21 08:32N 53°27' E 006°49'0 0.0
2015-May-21 07:32N 53°27' E 006°49'1 0.1
2015-May-21 03:33N 53°27' E 006°50'0 0.0
2015-May-21 02:21N 53°27' E 006°50'0 0.0
2015-May-21 01:33N 53°27' E 006°50'0 0.0
2015-May-21 00:19N 53°27' E 006°50'0 0.0
2015-May-20 23:23N 53°27' E 006°50'0 0.0
2015-May-20 21:30N 53°27' E 006°50'0 0.0
2015-May-20 20:33N 53°27' E 006°50'0 0.0
2015-May-20 19:25N 53°27' E 006°50'0 0.0
2015-May-20 18:18N 53°27' E 006°50'0 0.0
2015-May-20 16:32N 53°27' E 006°50'0 0.0
2015-May-20 15:32N 53°27' E 006°50'0 0.0
2015-May-20 14:30N 53°27' E 006°50'0 0.5
2015-May-20 13:33N 53°27' E 006°50'0 0.4
2015-May-20 12:33N 53°27' E 006°50'0 0.0
2015-May-20 09:33N 53°27' E 006°50'4 3.4
2015-May-20 08:26N 53°29' E 006°45'3 3.3
2015-May-20 07:25N 53°27' E 006°50'0 0.3
2015-May-20 06:33N 53°27' E 006°50'1 0.2
2015-May-20 03:34N 53°27' E 006°50'0 0.0
2015-May-20 02:32N 53°27' E 006°50'0 0.0
2015-May-20 01:31N 53°27' E 006°50'0 0.0
2015-May-20 00:33N 53°27' E 006°50'0 0.0
2015-May-19 23:32N 53°27' E 006°50'0 0.0
2015-May-19 22:32N 53°27' E 006°50'0 0.0
2015-May-19 21:21N 53°27' E 006°50'0 0.0
2015-May-19 20:18N 53°27' E 006°50'0 0.0
2015-May-19 19:18N 53°27' E 006°50'0 0.0
2015-May-19 18:18N 53°27' E 006°50'0 0.0
2015-May-19 17:25N 53°27' E 006°50'0 0.0
2015-May-19 16:26N 53°27' E 006°50'0 0.0
2015-May-19 15:33N 53°27' E 006°50'0 0.0
2015-May-19 14:33N 53°27' E 006°50'0 0.2
2015-May-19 13:32N 53°27' E 006°49'4 3.3
2015-May-19 12:26N 53°29' E 006°44'4 3.9
2015-May-19 11:32N 53°27' E 006°49'0 0.3
2015-May-19 10:28N 53°27' E 006°50'0 0.0
2015-May-19 09:33N 53°27' E 006°50'6 4.0
2015-May-19 08:04N 53°31' E 006°42'5 9.9
2015-May-19 07:31N 53°27' E 006°49'0 0.3
2015-May-19 06:33N 53°27' E 006°49'0 0.0
2015-May-18 23:27N 53°27' E 006°50'0 0.0
2015-May-18 21:27N 53°27' E 006°50'0 0.0
2015-May-18 20:27N 53°27' E 006°50'0 0.0
2015-May-18 19:33N 53°27' E 006°50'0 0.0
2015-May-18 18:20N 53°27' E 006°50'0 0.3
2015-May-18 17:33N 53°27' E 006°49'8 1.9
2015-May-18 13:27N 53°32' E 006°40'8 8.6
2015-May-18 12:32N 53°27' E 006°50'1 1.2
2015-May-18 11:32N 53°28' E 006°50'6 3.8
2015-May-18 10:04N 53°31' E 006°42'611.5
2015-May-18 09:33N 53°27' E 006°49'0 0.2
2015-May-18 08:22N 53°27' E 006°50'0 0.0
2015-May-18 07:13N 53°27' E 006°50'0 0.0
2015-May-18 06:08N 53°27' E 006°50'0 0.0
2015-May-18 03:18N 53°27' E 006°50'0 0.0
2015-May-18 02:06N 53°27' E 006°50'0 0.0
2015-May-18 01:30N 53°27' E 006°50'0 0.0
2015-May-18 00:18N 53°27' E 006°50'0 0.0
2015-May-17 23:33N 53°27' E 006°50'0 0.0
2015-May-17 22:33N 53°27' E 006°50'0 0.0
2015-May-17 21:33N 53°27' E 006°50'0 0.0
2015-May-17 20:32N 53°27' E 006°50'0 0.0
2015-May-17 19:26N 53°27' E 006°50'0 0.0
2015-May-17 18:33N 53°27' E 006°50'0 0.0
2015-May-17 17:33N 53°27' E 006°50'0 0.0
2015-May-17 16:32N 53°27' E 006°50'  

Dump ship's entire track history